createdAt,value
2022-08-20T00:02:14.094Z,23.3
2022-08-20T00:07:14.024Z,23
2022-08-20T00:12:20.902Z,23.2
2022-08-20T00:17:21.537Z,23.2
2022-08-20T00:23:14.076Z,23.2
2022-08-20T00:28:20.784Z,23.1
2022-08-20T00:33:20.793Z,23.1
2022-08-20T00:38:21.511Z,23.1
2022-08-20T00:44:14.020Z,23.1
2022-08-20T00:49:21.693Z,23.1
2022-08-20T00:55:14.040Z,22.9
2022-08-20T01:00:21.082Z,22.9
2022-08-20T01:06:14.045Z,22.9
2022-08-20T01:11:14.048Z,22.9
2022-08-20T01:16:20.793Z,22.8
2022-08-20T01:21:21.077Z,22.7
2022-08-20T01:27:14.024Z,22.7
2022-08-20T01:32:14.047Z,22.7
2022-08-20T01:37:20.821Z,22.6
2022-08-20T01:42:21.437Z,22.5
2022-08-20T01:48:14.030Z,22.3
2022-08-20T01:53:14.061Z,22.4
2022-08-20T01:58:20.831Z,22.4
2022-08-20T02:03:21.250Z,22.4
2022-08-20T02:09:16.123Z,22.4
2022-08-20T02:14:14.039Z,22.4
2022-08-20T02:19:14.050Z,22.5
2022-08-20T02:24:14.050Z,22.4
2022-08-20T02:29:20.860Z,22.4
2022-08-20T02:35:15.279Z,22.2
2022-08-20T02:40:30.979Z,22.1
2022-08-20T02:45:21.078Z,22
2022-08-20T02:50:21.209Z,22.1
2022-08-20T02:56:14.067Z,22.1
2022-08-20T03:02:14.061Z,22
2022-08-20T03:07:14.071Z,21.9
2022-08-20T03:12:14.080Z,22
2022-08-20T03:17:20.856Z,21.9
2022-08-20T03:22:21.640Z,21.8
2022-08-20T03:28:14.071Z,21.8
2022-08-20T03:33:20.841Z,21.7
2022-08-20T03:38:21.471Z,21.6
2022-08-20T03:44:14.086Z,21.5
2022-08-20T03:49:14.104Z,21.4
2022-08-20T03:54:20.853Z,21.4
2022-08-20T03:59:21.647Z,21.4
2022-08-20T04:05:14.081Z,21.4
2022-08-20T04:10:14.112Z,21.3
2022-08-20T04:15:14.096Z,21.3
2022-08-20T04:20:14.104Z,21.3
2022-08-20T04:25:21.338Z,21.4
2022-08-20T04:30:21.496Z,21.3
2022-08-20T04:36:14.145Z,21.4
2022-08-20T04:41:23.695Z,21.4
2022-08-20T04:46:20.859Z,21.4
2022-08-20T04:51:23.136Z,21.5
2022-08-20T04:56:21.638Z,21.6
2022-08-20T05:02:14.097Z,21.6
2022-08-20T05:07:14.109Z,21.6
2022-08-20T05:12:20.876Z,21.5
2022-08-20T05:17:21.145Z,21.4
2022-08-20T05:23:14.125Z,21.6
2022-08-20T05:28:20.909Z,21.7
2022-08-20T05:33:21.572Z,21.7
2022-08-20T05:39:14.119Z,21.7
2022-08-20T05:44:14.120Z,21.6
2022-08-20T05:49:14.137Z,21.7
2022-08-20T05:54:20.882Z,21.7
2022-08-20T05:59:24.046Z,21.7
2022-08-20T06:05:14.116Z,21.5
2022-08-20T06:11:14.147Z,21.5
2022-08-20T06:16:21.263Z,21.5
2022-08-20T06:21:21.654Z,21.6
2022-08-20T06:27:14.141Z,21.7
2022-08-20T06:32:31.966Z,21.6
2022-08-20T06:38:14.127Z,21.5
2022-08-20T06:43:21.459Z,21.2
2022-08-20T06:48:21.570Z,21.1
2022-08-20T06:54:14.116Z,21
2022-08-20T06:59:14.144Z,21.2
2022-08-20T07:04:20.975Z,21.3
2022-08-20T07:10:14.198Z,21.4
2022-08-20T07:15:21.393Z,21.2
2022-08-20T07:21:14.145Z,21.2
2022-08-20T07:26:14.145Z,21.4
2022-08-20T07:31:21.407Z,21.1
2022-08-20T07:37:14.143Z,21.2
2022-08-20T07:42:14.158Z,21.5
2022-08-20T07:47:20.904Z,21.6
2022-08-20T07:52:20.930Z,21.8
2022-08-20T07:57:21.577Z,22.2
2022-08-20T08:03:14.142Z,22.5
2022-08-20T08:08:21.414Z,22.7
2022-08-20T08:14:14.138Z,22.6
2022-08-20T08:19:14.160Z,23
2022-08-20T08:24:19.385Z,23.6
2022-08-20T08:29:20.932Z,24.1
2022-08-20T08:34:21.552Z,25.1
2022-08-20T08:39:21.632Z,25.7
2022-08-20T08:45:14.160Z,25.7
2022-08-20T08:50:33.373Z,25.4
2022-08-20T08:56:14.170Z,26.9
2022-08-20T09:01:54.542Z,28.5
2022-08-20T09:07:14.183Z,29.1
2022-08-20T09:12:21.051Z,29.2
2022-08-20T09:17:21.231Z,28.5
2022-08-20T09:23:14.161Z,27.9
2022-08-20T09:28:14.174Z,27.2
2022-08-20T09:33:20.940Z,26.7
2022-08-20T09:38:20.949Z,27.4
2022-08-20T09:44:14.203Z,27.4
2022-08-20T09:49:20.967Z,27.8
2022-08-20T09:54:20.962Z,28.4
2022-08-20T09:59:20.981Z,28.1
2022-08-20T10:04:21.722Z,29.2
2022-08-20T10:10:14.224Z,31.1
2022-08-20T10:15:20.968Z,31.4
2022-08-20T10:21:14.220Z,31.1
2022-08-20T10:26:20.969Z,29.7
2022-08-20T10:31:20.992Z,29.8
2022-08-20T10:37:14.198Z,31.3
2022-08-20T10:42:14.207Z,32.1
2022-08-20T10:47:14.231Z,33.3
2022-08-20T10:52:21.450Z,32.3
2022-08-20T10:58:14.236Z,31.1
2022-08-20T11:03:20.987Z,29.6
2022-08-20T11:08:25.157Z,29.3
2022-08-20T11:14:14.233Z,29.2
2022-08-20T11:19:21.198Z,28.7
2022-08-20T11:25:14.240Z,28.6
2022-08-20T11:30:20.991Z,28.7
2022-08-20T11:35:42.094Z,28.9
2022-08-20T11:40:21.187Z,28.8
2022-08-20T11:45:21.281Z,28.3
2022-08-20T11:51:14.251Z,29
2022-08-20T11:56:21.859Z,28.9
2022-08-20T12:02:21.091Z,29.2
2022-08-20T12:08:27.289Z,29.4
2022-08-20T12:13:21.023Z,28.6
2022-08-20T12:18:21.634Z,27.9
2022-08-20T12:23:21.715Z,27.9
2022-08-20T12:29:14.254Z,27.6
2022-08-20T12:34:14.274Z,27.9
2022-08-20T12:39:14.291Z,28.2
2022-08-20T12:44:21.636Z,27.7
2022-08-20T12:50:14.274Z,27.3
2022-08-20T12:55:21.256Z,27.4
2022-08-20T13:01:14.371Z,27.3
2022-08-20T13:06:15.400Z,26.8
2022-08-20T13:11:21.180Z,26.8
2022-08-20T13:16:21.955Z,27
2022-08-20T13:22:14.337Z,26.8
2022-08-20T13:27:21.046Z,26.4
2022-08-20T13:32:21.030Z,26.1
2022-08-20T13:37:25.101Z,26.1
2022-08-20T13:43:14.279Z,25.8
2022-08-20T13:48:21.044Z,26.1
2022-08-20T13:54:14.294Z,26.5
2022-08-20T13:59:14.318Z,26.9
2022-08-20T14:04:21.490Z,26.7
2022-08-20T14:10:14.290Z,26.6
2022-08-20T14:15:14.330Z,26.4
2022-08-20T14:20:21.824Z,26.1
2022-08-20T14:26:14.279Z,26
2022-08-20T14:31:14.315Z,25.7
2022-08-20T14:36:21.058Z,25.7
2022-08-20T14:42:14.308Z,25.5
2022-08-20T14:47:21.519Z,25.4
2022-08-20T14:53:14.293Z,25.5
2022-08-20T14:58:14.348Z,25.8
2022-08-20T15:03:21.089Z,25.7
2022-08-20T15:08:21.272Z,25.6
2022-08-20T15:13:22.054Z,26.1
2022-08-20T15:19:14.295Z,26.2
2022-08-20T15:24:21.079Z,26.4
2022-08-20T15:29:23.016Z,26.2
2022-08-20T15:35:14.312Z,26
2022-08-20T15:40:24.582Z,26
2022-08-20T15:45:22.330Z,26.1
2022-08-20T15:51:14.329Z,26
2022-08-20T15:56:14.348Z,26.2
2022-08-20T16:01:25.392Z,26.3
2022-08-20T16:06:21.506Z,26.1
2022-08-20T16:12:14.349Z,26.4
2022-08-20T16:17:21.095Z,26.7
2022-08-20T16:22:21.549Z,26.6
2022-08-20T16:27:21.737Z,26.6
2022-08-20T16:33:14.329Z,26.6
2022-08-20T16:38:14.330Z,26.6
2022-08-20T16:43:14.348Z,26
2022-08-20T16:48:14.350Z,26.1
2022-08-20T16:53:21.122Z,26.2
2022-08-20T16:58:21.395Z,25.9
2022-08-20T17:03:21.441Z,26.1
2022-08-20T17:09:14.362Z,25.9
2022-08-20T17:14:14.360Z,26.2
2022-08-20T17:19:14.351Z,26
2022-08-20T17:24:16.782Z,25.9
2022-08-20T17:29:14.375Z,26
2022-08-20T17:34:14.433Z,26
2022-08-20T17:39:21.165Z,25.8
2022-08-20T17:44:21.661Z,25.8
2022-08-20T17:50:14.393Z,25.7
2022-08-20T17:55:21.330Z,25.6
2022-08-20T18:00:21.913Z,25.5
2022-08-20T18:06:14.384Z,25.4
2022-08-20T18:11:21.589Z,25.2
2022-08-20T18:17:14.372Z,25
2022-08-20T18:22:14.389Z,24.9
2022-08-20T18:27:14.390Z,24.7
2022-08-20T18:32:15.522Z,24.6
2022-08-20T18:37:22.734Z,24.3
2022-08-20T18:42:22.840Z,24.1
2022-08-20T18:47:22.973Z,23.9
2022-08-20T18:52:23.031Z,23.7
2022-08-20T18:58:15.531Z,23.6
2022-08-20T19:03:15.538Z,23.4
2022-08-20T19:08:15.549Z,23.2
2022-08-20T19:13:22.919Z,23
2022-08-20T19:19:15.519Z,22.9
2022-08-20T19:24:22.649Z,22.7
2022-08-20T19:29:22.893Z,22.6
2022-08-20T19:34:22.931Z,22.4
2022-08-20T19:40:15.544Z,22.3
2022-08-20T19:45:22.307Z,22.2
2022-08-20T19:51:15.510Z,22.1
2022-08-20T19:56:22.284Z,22
2022-08-20T20:01:22.645Z,22
2022-08-20T20:07:15.508Z,21.9
2022-08-20T20:12:22.490Z,21.8
2022-08-20T20:17:17.811Z,21.7
2022-08-20T20:22:22.794Z,21.5
2022-08-20T20:28:15.518Z,21.5
2022-08-20T20:33:15.549Z,21.5
2022-08-20T20:38:22.312Z,21.4
2022-08-20T20:43:23.165Z,21.2
2022-08-20T20:49:15.531Z,21.2
2022-08-20T20:54:15.546Z,21.1
2022-08-20T20:59:22.969Z,21.1
2022-08-20T21:05:15.561Z,21
2022-08-20T21:10:15.714Z,20.8
2022-08-20T21:15:22.624Z,20.7
2022-08-20T21:21:15.527Z,20.7
2022-08-20T21:26:15.544Z,20.7
2022-08-20T21:31:22.724Z,20.6
2022-08-20T21:36:22.714Z,20.3
2022-08-20T21:41:29.501Z,20.2
2022-08-20T21:47:15.539Z,20.3
2022-08-20T21:52:22.893Z,20.3
2022-08-20T21:58:15.558Z,20.3
2022-08-20T22:03:22.580Z,20.2
2022-08-20T22:09:15.577Z,20
2022-08-20T22:14:22.339Z,19.8
2022-08-20T22:19:22.696Z,19.7
2022-08-20T22:25:22.355Z,19.4
2022-08-20T22:30:22.904Z,19.2
2022-08-20T22:36:15.548Z,19.1
2022-08-20T22:41:15.564Z,19.3
2022-08-20T22:46:15.581Z,19.3
2022-08-20T22:51:23.055Z,19.2
2022-08-20T22:57:15.569Z,19.2
2022-08-20T23:02:15.561Z,19.2
2022-08-20T23:07:15.570Z,19.1
2022-08-20T23:12:15.579Z,19.1
2022-08-20T23:17:15.589Z,19
2022-08-20T23:22:22.962Z,18.9
2022-08-20T23:27:23.125Z,18.9
2022-08-20T23:33:15.586Z,18.7
2022-08-20T23:38:15.593Z,18.6
2022-08-20T23:43:15.619Z,18.6
2022-08-20T23:48:22.808Z,18.6
2022-08-20T23:53:22.967Z,18.5
2022-08-20T23:59:15.592Z,18.5
